sensor_id;sensor_type;location;lat;lon;timestamp;pressure;altitude;pressure_sealevel;temperature;humidity
23616;BME280;11985;49.404;7.734;2023-12-14T00:03:00;96244.94;;;5.63;100.00
23616;BME280;11985;49.404;7.734;2023-12-14T00:08:02;96257.00;;;5.64;100.00
23616;BME280;11985;49.404;7.734;2023-12-14T00:13:04;96270.66;;;5.66;100.00
23616;BME280;11985;49.404;7.734;2023-12-14T00:18:09;96271.66;;;5.65;100.00
23616;BME280;11985;49.404;7.734;2023-12-14T00:23:11;96271.06;;;5.63;100.00
23616;BME280;11985;49.404;7.734;2023-12-14T00:28:12;96282.75;;;5.67;100.00
23616;BME280;11985;49.404;7.734;2023-12-14T00:33:15;96283.72;;;5.66;100.00
23616;BME280;11985;49.404;7.734;2023-12-14T00:38:17;96289.94;;;5.65;100.00
23616;BME280;11985;49.404;7.734;2023-12-14T00:43:18;96293.56;;;5.64;100.00
23616;BME280;11985;49.404;7.734;2023-12-14T00:48:21;96302.41;;;5.63;100.00
23616;BME280;11985;49.404;7.734;2023-12-14T00:53:23;96316.50;;;5.62;100.00
23616;BME280;11985;49.404;7.734;2023-12-14T00:58:25;96325.94;;;5.63;100.00
23616;BME280;11985;49.404;7.734;2023-12-14T01:03:28;96330.56;;;5.68;100.00
23616;BME280;11985;49.404;7.734;2023-12-14T01:08:29;96348.66;;;5.69;100.00
23616;BME280;11985;49.404;7.734;2023-12-14T01:13:31;96356.09;;;5.72;100.00
23616;BME280;11985;49.404;7.734;2023-12-14T01:18:34;96356.69;;;5.74;100.00
23616;BME280;11985;49.404;7.734;2023-12-14T01:23:35;96359.31;;;5.74;100.00
23616;BME280;11985;49.404;7.734;2023-12-14T01:28:37;96369.56;;;5.76;100.00
23616;BME280;11985;49.404;7.734;2023-12-14T01:33:40;96376.00;;;5.73;100.00
23616;BME280;11985;49.404;7.734;2023-12-14T01:38:42;96380.41;;;5.73;100.00
23616;BME280;11985;49.404;7.734;2023-12-14T01:43:43;96383.22;;;5.71;100.00
23616;BME280;11985;49.404;7.734;2023-12-14T01:48:46;96388.44;;;5.71;100.00
23616;BME280;11985;49.404;7.734;2023-12-14T01:53:48;96405.75;;;5.72;100.00
23616;BME280;11985;49.404;7.734;2023-12-14T01:58:50;96416.19;;;5.72;100.00
23616;BME280;11985;49.404;7.734;2023-12-14T02:03:53;96423.81;;;5.67;100.00
23616;BME280;11985;49.404;7.734;2023-12-14T02:08:55;96433.03;;;5.63;100.00
23616;BME280;11985;49.404;7.734;2023-12-14T02:13:57;96437.03;;;5.59;100.00
23616;BME280;11985;49.404;7.734;2023-12-14T02:19:00;96443.06;;;5.60;100.00
23616;BME280;11985;49.404;7.734;2023-12-14T02:24:03;96448.69;;;5.63;100.00
23616;BME280;11985;49.404;7.734;2023-12-14T02:29:05;96453.13;;;5.63;100.00
23616;BME280;11985;49.404;7.734;2023-12-14T02:34:07;96449.72;;;5.62;100.00
23616;BME280;11985;49.404;7.734;2023-12-14T02:39:10;96457.56;;;5.62;100.00
23616;BME280;11985;49.404;7.734;2023-12-14T02:44:11;96466.78;;;5.65;100.00
23616;BME280;11985;49.404;7.734;2023-12-14T02:49:13;96475.25;;;5.67;100.00
23616;BME280;11985;49.404;7.734;2023-12-14T02:54:16;96481.66;;;5.64;100.00
23616;BME280;11985;49.404;7.734;2023-12-14T02:59:17;96489.25;;;5.59;100.00
23616;BME280;11985;49.404;7.734;2023-12-14T03:04:19;96502.09;;;5.54;100.00
23616;BME280;11985;49.404;7.734;2023-12-14T03:09:22;96510.72;;;5.54;100.00
23616;BME280;11985;49.404;7.734;2023-12-14T03:14:24;96521.59;;;5.51;100.00
23616;BME280;11985;49.404;7.734;2023-12-14T03:19:25;96521.78;;;5.50;100.00
23616;BME280;11985;49.404;7.734;2023-12-14T03:24:28;96537.06;;;5.53;100.00
23616;BME280;11985;49.404;7.734;2023-12-14T03:29:30;96533.03;;;5.50;100.00
23616;BME280;11985;49.404;7.734;2023-12-14T03:34:32;96539.44;;;5.48;100.00
23616;BME280;11985;49.404;7.734;2023-12-14T03:39:35;96553.50;;;5.47;100.00
23616;BME280;11985;49.404;7.734;2023-12-14T03:44:36;96558.72;;;5.47;100.00
23616;BME280;11985;49.404;7.734;2023-12-14T03:49:38;96558.72;;;5.47;100.00
23616;BME280;11985;49.404;7.734;2023-12-14T03:54:41;96568.81;;;5.50;100.00
23616;BME280;11985;49.404;7.734;2023-12-14T03:59:42;96584.47;;;5.50;100.00
23616;BME280;11985;49.404;7.734;2023-12-14T04:04:44;96589.69;;;5.50;100.00
23616;BME280;11985;49.404;7.734;2023-12-14T04:09:48;96597.53;;;5.50;100.00
23616;BME280;11985;49.404;7.734;2023-12-14T04:14:50;96603.72;;;5.49;100.00
23616;BME280;11985;49.404;7.734;2023-12-14T04:19:52;96623.00;;;5.48;100.00
23616;BME280;11985;49.404;7.734;2023-12-14T04:24:55;96630.59;;;5.43;100.00
23616;BME280;11985;49.404;7.734;2023-12-14T04:29:56;96635.41;;;5.39;100.00
23616;BME280;11985;49.404;7.734;2023-12-14T04:34:58;96641.56;;;5.32;100.00
23616;BME280;11985;49.404;7.734;2023-12-14T04:40:01;96650.78;;;5.27;100.00
23616;BME280;11985;49.404;7.734;2023-12-14T04:45:04;96644.56;;;5.28;100.00
23616;BME280;11985;49.404;7.734;2023-12-14T04:50:06;96657.78;;;5.27;100.00
23616;BME280;11985;49.404;7.734;2023-12-14T04:55:09;96668.78;;;5.44;100.00
23616;BME280;11985;49.404;7.734;2023-12-14T05:00:12;96673.84;;;5.73;100.00
23616;BME280;11985;49.404;7.734;2023-12-14T05:05:14;96676.06;;;5.98;100.00
23616;BME280;11985;49.404;7.734;2023-12-14T05:10:17;96687.38;;;6.05;100.00
23616;BME280;11985;49.404;7.734;2023-12-14T05:15:19;96696.84;;;6.06;100.00
23616;BME280;11985;49.404;7.734;2023-12-14T05:20:21;96705.09;;;6.09;100.00
23616;BME280;11985;49.404;7.734;2023-12-14T05:25:24;96711.13;;;6.10;100.00
23616;BME280;11985;49.404;7.734;2023-12-14T05:30:26;96714.38;;;6.12;100.00
23616;BME280;11985;49.404;7.734;2023-12-14T05:35:28;96723.28;;;6.18;100.00
23616;BME280;11985;49.404;7.734;2023-12-14T05:40:31;96738.19;;;6.24;100.00
23616;BME280;11985;49.404;7.734;2023-12-14T05:45:32;96743.84;;;6.27;100.00
23616;BME280;11985;49.404;7.734;2023-12-14T05:50:34;96760.69;;;6.18;100.00
23616;BME280;11985;49.404;7.734;2023-12-14T05:55:37;96765.78;;;6.05;100.00
23616;BME280;11985;49.404;7.734;2023-12-14T06:00:40;96771.38;;;5.95;100.00
23616;BME280;11985;49.404;7.734;2023-12-14T06:05:42;96786.59;;;5.92;100.00
23616;BME280;11985;49.404;7.734;2023-12-14T06:10:45;96797.78;;;5.86;100.00
23616;BME280;11985;49.404;7.734;2023-12-14T06:15:47;96803.25;;;5.91;100.00
23616;BME280;11985;49.404;7.734;2023-12-14T06:20:48;96814.72;;;5.90;100.00
23616;BME280;11985;49.404;7.734;2023-12-14T06:25:51;96833.09;;;5.96;100.00
23616;BME280;11985;49.404;7.734;2023-12-14T06:30:53;96842.66;;;6.11;100.00
23616;BME280;11985;49.404;7.734;2023-12-14T06:35:54;96857.19;;;6.13;100.00
23616;BME280;11985;49.404;7.734;2023-12-14T06:40:57;96863.41;;;6.12;100.00
23616;BME280;11985;49.404;7.734;2023-12-14T06:45:59;96871.19;;;6.05;100.00
23616;BME280;11985;49.404;7.734;2023-12-14T06:51:00;96860.34;;;6.08;100.00
23616;BME280;11985;49.404;7.734;2023-12-14T06:56:04;96873.06;;;6.12;100.00
23616;BME280;11985;49.404;7.734;2023-12-14T07:01:12;96880.09;;;6.11;100.00
23616;BME280;11985;49.404;7.734;2023-12-14T07:06:14;96895.91;;;6.03;100.00
23616;BME280;11985;49.404;7.734;2023-12-14T07:11:26;96908.28;;;5.94;100.00
23616;BME280;11985;49.404;7.734;2023-12-14T07:16:27;96915.13;;;5.80;100.00
23616;BME280;11985;49.404;7.734;2023-12-14T07:21:29;96919.09;;;5.76;100.00
23616;BME280;11985;49.404;7.734;2023-12-14T07:26:32;96928.31;;;5.72;100.00
23616;BME280;11985;49.404;7.734;2023-12-14T07:31:34;96942.53;;;5.70;100.00
23616;BME280;11985;49.404;7.734;2023-12-14T07:36:35;96947.22;;;5.74;100.00
23616;BME280;11985;49.404;7.734;2023-12-14T07:41:39;96953.25;;;5.90;100.00
23616;BME280;11985;49.404;7.734;2023-12-14T07:46:40;96962.44;;;6.00;100.00
23616;BME280;11985;49.404;7.734;2023-12-14T07:51:43;96972.97;;;6.07;100.00
23616;BME280;11985;49.404;7.734;2023-12-14T07:56:46;96991.00;;;6.02;100.00
23616;BME280;11985;49.404;7.734;2023-12-14T08:01:47;97009.03;;;5.97;100.00
23616;BME280;11985;49.404;7.734;2023-12-14T08:06:49;97015.88;;;5.98;100.00
23616;BME280;11985;49.404;7.734;2023-12-14T08:11:53;97032.03;;;6.01;100.00
23616;BME280;11985;49.404;7.734;2023-12-14T08:16:54;97037.06;;;6.03;100.00
23616;BME280;11985;49.404;7.734;2023-12-14T08:21:56;97049.59;;;6.07;100.00
23616;BME280;11985;49.404;7.734;2023-12-14T08:26:59;97054.63;;;6.09;100.00
23616;BME280;11985;49.404;7.734;2023-12-14T08:32:00;97063.56;;;6.15;100.00
23616;BME280;11985;49.404;7.734;2023-12-14T08:37:02;97072.84;;;6.17;100.00
23616;BME280;11985;49.404;7.734;2023-12-14T08:42:05;97085.00;;;6.25;100.00
23616;BME280;11985;49.404;7.734;2023-12-14T08:47:07;97099.69;;;6.41;100.00
23616;BME280;11985;49.404;7.734;2023-12-14T08:52:09;97114.66;;;6.47;100.00
23616;BME280;11985;49.404;7.734;2023-12-14T08:57:13;97118.19;;;6.39;100.00
23616;BME280;11985;49.404;7.734;2023-12-14T09:02:15;97124.22;;;6.40;100.00
23616;BME280;11985;49.404;7.734;2023-12-14T09:07:16;97132.88;;;6.25;100.00
23616;BME280;11985;49.404;7.734;2023-12-14T09:12:19;97143.81;;;6.29;100.00
23616;BME280;11985;49.404;7.734;2023-12-14T09:17:21;97151.84;;;6.27;100.00
23616;BME280;11985;49.404;7.734;2023-12-14T09:22:23;97164.66;;;6.22;100.00
23616;BME280;11985;49.404;7.734;2023-12-14T09:27:26;97171.84;;;6.20;100.00
23616;BME280;11985;49.404;7.734;2023-12-14T09:32:27;97183.75;;;6.08;100.00
23616;BME280;11985;49.404;7.734;2023-12-14T09:37:29;97195.66;;;5.96;100.00
23616;BME280;11985;49.404;7.734;2023-12-14T09:42:36;97199.78;;;6.05;100.00
23616;BME280;11985;49.404;7.734;2023-12-14T09:47:38;97206.22;;;6.32;100.00
23616;BME280;11985;49.404;7.734;2023-12-14T09:52:41;97221.28;;;6.45;100.00
23616;BME280;11985;49.404;7.734;2023-12-14T09:57:46;97229.69;;;6.40;100.00
23616;BME280;11985;49.404;7.734;2023-12-14T10:02:48;97230.94;;;6.44;100.00
23616;BME280;11985;49.404;7.734;2023-12-14T10:07:51;97242.22;;;6.45;100.00
23616;BME280;11985;49.404;7.734;2023-12-14T10:12:55;97244.91;;;6.37;100.00
23616;BME280;11985;49.404;7.734;2023-12-14T10:17:56;97244.28;;;6.34;100.00
23616;BME280;11985;49.404;7.734;2023-12-14T10:22:58;97248.25;;;6.30;100.00
23616;BME280;11985;49.404;7.734;2023-12-14T10:28:01;97262.59;;;6.34;100.00
23616;BME280;11985;49.404;7.734;2023-12-14T10:33:03;97262.31;;;6.29;100.00
23616;BME280;11985;49.404;7.734;2023-12-14T10:38:05;97268.00;;;6.18;100.00
23616;BME280;11985;49.404;7.734;2023-12-14T10:43:11;97272.03;;;6.21;100.00
23616;BME280;11985;49.404;7.734;2023-12-14T10:48:13;97270.88;;;6.23;100.00
23616;BME280;11985;49.404;7.734;2023-12-14T10:53:15;97279.19;;;6.42;100.00
23616;BME280;11985;49.404;7.734;2023-12-14T10:58:19;97288.41;;;6.52;100.00
23616;BME280;11985;49.404;7.734;2023-12-14T11:03:21;97295.28;;;6.68;100.00
23616;BME280;11985;49.404;7.734;2023-12-14T11:08:23;97299.44;;;6.63;100.00
23616;BME280;11985;49.404;7.734;2023-12-14T11:13:26;97303.47;;;6.65;100.00
23616;BME280;11985;49.404;7.734;2023-12-14T11:18:32;97321.47;;;6.68;100.00
23616;BME280;11985;49.404;7.734;2023-12-14T11:23:36;97326.88;;;6.67;100.00
23616;BME280;11985;49.404;7.734;2023-12-14T11:28:40;97324.69;;;6.70;100.00
23616;BME280;11985;49.404;7.734;2023-12-14T11:33:43;97335.81;;;6.72;100.00
23616;BME280;11985;49.404;7.734;2023-12-14T11:38:47;97336.91;;;6.78;100.00
23616;BME280;11985;49.404;7.734;2023-12-14T11:43:50;97343.91;;;6.77;100.00
23616;BME280;11985;49.404;7.734;2023-12-14T11:48:52;97347.63;;;6.68;100.00
23616;BME280;11985;49.404;7.734;2023-12-14T11:53:54;97350.16;;;6.76;100.00
23616;BME280;11985;49.404;7.734;2023-12-14T11:58:57;97354.69;;;6.97;100.00
23616;BME280;11985;49.404;7.734;2023-12-14T12:04:08;97356.84;;;7.08;100.00
23616;BME280;11985;49.404;7.734;2023-12-14T12:09:10;97360.09;;;7.25;100.00
23616;BME280;11985;49.404;7.734;2023-12-14T12:14:13;97363.25;;;7.21;100.00
23616;BME280;11985;49.404;7.734;2023-12-14T12:19:15;97355.69;;;7.11;100.00
23616;BME280;11985;49.404;7.734;2023-12-14T12:24:17;97365.72;;;7.22;100.00
23616;BME280;11985;49.404;7.734;2023-12-14T12:29:20;97355.84;;;7.24;100.00
23616;BME280;11985;49.404;7.734;2023-12-14T12:34:21;97351.78;;;7.36;100.00
23616;BME280;11985;49.404;7.734;2023-12-14T12:39:23;97350.00;;;7.22;100.00
23616;BME280;11985;49.404;7.734;2023-12-14T12:44:26;97366.59;;;7.14;100.00
23616;BME280;11985;49.404;7.734;2023-12-14T12:49:28;97365.97;;;7.12;100.00
23616;BME280;11985;49.404;7.734;2023-12-14T12:54:31;97366.44;;;7.01;100.00
23616;BME280;11985;49.404;7.734;2023-12-14T12:59:34;97381.06;;;6.96;100.00
23616;BME280;11985;49.404;7.734;2023-12-14T13:04:35;97381.97;;;7.03;100.00
23616;BME280;11985;49.404;7.734;2023-12-14T13:09:37;97375.66;;;7.12;100.00
23616;BME280;11985;49.404;7.734;2023-12-14T13:14:41;97381.69;;;7.12;100.00
23616;BME280;11985;49.404;7.734;2023-12-14T13:19:43;97382.66;;;7.26;100.00
23616;BME280;11985;49.404;7.734;2023-12-14T13:24:45;97396.50;;;7.20;100.00
23616;BME280;11985;49.404;7.734;2023-12-14T13:29:48;97411.75;;;7.02;100.00
23616;BME280;11985;49.404;7.734;2023-12-14T13:34:49;97409.75;;;7.04;100.00
23616;BME280;11985;49.404;7.734;2023-12-14T13:39:51;97423.38;;;6.99;100.00
23616;BME280;11985;49.404;7.734;2023-12-14T13:44:54;97426.91;;;6.92;100.00
23616;BME280;11985;49.404;7.734;2023-12-14T13:49:56;97428.97;;;6.81;100.00
23616;BME280;11985;49.404;7.734;2023-12-14T13:54:58;97445.75;;;6.72;100.00
23616;BME280;11985;49.404;7.734;2023-12-14T14:00:01;97447.44;;;6.65;100.00
23616;BME280;11985;49.404;7.734;2023-12-14T14:05:03;97464.00;;;6.80;100.00
23616;BME280;11985;49.404;7.734;2023-12-14T14:10:06;97474.03;;;6.92;100.00
23616;BME280;11985;49.404;7.734;2023-12-14T14:15:10;97488.13;;;6.91;100.00
23616;BME280;11985;49.404;7.734;2023-12-14T14:20:11;97499.78;;;6.65;100.00
23616;BME280;11985;49.404;7.734;2023-12-14T14:25:13;97514.44;;;6.51;100.00
23616;BME280;11985;49.404;7.734;2023-12-14T14:30:16;97523.09;;;6.29;100.00
23616;BME280;11985;49.404;7.734;2023-12-14T14:35:19;97535.06;;;6.15;100.00
23616;BME280;11985;49.404;7.734;2023-12-14T14:40:21;97540.66;;;6.12;100.00
23616;BME280;11985;49.404;7.734;2023-12-14T14:45:24;97554.72;;;6.11;100.00
23616;BME280;11985;49.404;7.734;2023-12-14T14:50:26;97573.19;;;6.09;100.00
23616;BME280;11985;49.404;7.734;2023-12-14T14:55:28;97578.63;;;5.92;100.00
23616;BME280;11985;49.404;7.734;2023-12-14T15:00:31;97584.19;;;5.80;100.00
23616;BME280;11985;49.404;7.734;2023-12-14T15:05:38;97595.97;;;5.76;100.00
23616;BME280;11985;49.404;7.734;2023-12-14T15:10:40;97601.34;;;5.91;100.00
23616;BME280;11985;49.404;7.734;2023-12-14T15:15:43;97610.00;;;6.00;100.00
23616;BME280;11985;49.404;7.734;2023-12-14T15:20:44;97621.25;;;6.08;100.00
23616;BME280;11985;49.404;7.734;2023-12-14T15:25:48;97620.94;;;6.03;100.00
23616;BME280;11985;49.404;7.734;2023-12-14T15:30:51;97639.41;;;6.02;100.00
23616;BME280;11985;49.404;7.734;2023-12-14T15:35:53;97655.25;;;5.84;100.00
23616;BME280;11985;49.404;7.734;2023-12-14T15:40:55;97663.94;;;5.68;100.00
23616;BME280;11985;49.404;7.734;2023-12-14T15:45:58;97673.44;;;5.61;100.00
23616;BME280;11985;49.404;7.734;2023-12-14T15:51:02;97679.59;;;5.60;100.00
23616;BME280;11985;49.404;7.734;2023-12-14T15:56:05;97683.88;;;5.61;100.00
23616;BME280;11985;49.404;7.734;2023-12-14T16:01:08;97697.91;;;5.60;100.00
23616;BME280;11985;49.404;7.734;2023-12-14T16:06:10;97710.16;;;5.60;100.00
23616;BME280;11985;49.404;7.734;2023-12-14T16:11:12;97713.75;;;5.50;100.00
23616;BME280;11985;49.404;7.734;2023-12-14T16:16:16;97717.50;;;5.64;100.00
23616;BME280;11985;49.404;7.734;2023-12-14T16:21:18;97723.06;;;5.69;100.00
23616;BME280;11985;49.404;7.734;2023-12-14T16:26:19;97729.59;;;5.57;100.00
23616;BME280;11985;49.404;7.734;2023-12-14T16:31:22;97739.66;;;5.19;100.00
23616;BME280;11985;49.404;7.734;2023-12-14T16:36:24;97746.34;;;5.14;100.00
23616;BME280;11985;49.404;7.734;2023-12-14T16:41:26;97763.28;;;5.10;100.00
23616;BME280;11985;49.404;7.734;2023-12-14T16:46:29;97771.41;;;4.98;100.00
23616;BME280;11985;49.404;7.734;2023-12-14T16:51:31;97787.88;;;4.91;100.00
23616;BME280;11985;49.404;7.734;2023-12-14T16:56:32;97785.22;;;4.83;100.00
23616;BME280;11985;49.404;7.734;2023-12-14T17:01:36;97803.09;;;4.69;100.00
23616;BME280;11985;49.404;7.734;2023-12-14T17:06:38;97813.53;;;4.69;100.00
23616;BME280;11985;49.404;7.734;2023-12-14T17:11:41;97817.75;;;4.62;100.00
23616;BME280;11985;49.404;7.734;2023-12-14T17:16:46;97833.31;;;4.72;100.00
23616;BME280;11985;49.404;7.734;2023-12-14T17:21:49;97844.47;;;4.90;100.00
23616;BME280;11985;49.404;7.734;2023-12-14T17:26:51;97851.97;;;4.93;100.00
23616;BME280;11985;49.404;7.734;2023-12-14T17:31:55;97856.53;;;4.83;100.00
23616;BME280;11985;49.404;7.734;2023-12-14T17:36:57;97869.00;;;4.71;100.00
23616;BME280;11985;49.404;7.734;2023-12-14T17:41:58;97882.00;;;4.63;100.00
23616;BME280;11985;49.404;7.734;2023-12-14T17:47:02;97887.50;;;4.60;100.00
23616;BME280;11985;49.404;7.734;2023-12-14T17:52:04;97894.97;;;4.55;100.00
23616;BME280;11985;49.404;7.734;2023-12-14T17:57:05;97909.97;;;4.53;100.00
23616;BME280;11985;49.404;7.734;2023-12-14T18:02:08;97917.38;;;4.40;100.00
23616;BME280;11985;49.404;7.734;2023-12-14T18:07:10;97915.03;;;4.37;100.00
23616;BME280;11985;49.404;7.734;2023-12-14T18:12:13;97928.31;;;4.43;100.00
23616;BME280;11985;49.404;7.734;2023-12-14T18:17:16;97930.66;;;4.72;100.00
23616;BME280;11985;49.404;7.734;2023-12-14T18:22:18;97935.59;;;4.58;100.00
23616;BME280;11985;49.404;7.734;2023-12-14T18:27:20;97948.69;;;4.66;100.00
23616;BME280;11985;49.404;7.734;2023-12-14T18:32:23;97959.44;;;4.63;100.00
23616;BME280;11985;49.404;7.734;2023-12-14T18:37:24;97962.59;;;4.48;100.00
23616;BME280;11985;49.404;7.734;2023-12-14T18:42:27;97973.81;;;4.49;100.00
23616;BME280;11985;49.404;7.734;2023-12-14T18:47:30;97981.00;;;4.47;100.00
23616;BME280;11985;49.404;7.734;2023-12-14T18:52:31;97984.59;;;4.46;100.00
23616;BME280;11985;49.404;7.734;2023-12-14T18:57:33;97999.78;;;4.50;100.00
23616;BME280;11985;49.404;7.734;2023-12-14T19:02:36;98006.84;;;4.40;100.00
23616;BME280;11985;49.404;7.734;2023-12-14T19:07:39;98007.22;;;4.28;100.00
23616;BME280;11985;49.404;7.734;2023-12-14T19:12:41;98016.59;;;4.20;100.00
23616;BME280;11985;49.404;7.734;2023-12-14T19:17:44;98026.00;;;4.31;100.00
23616;BME280;11985;49.404;7.734;2023-12-14T19:22:46;98028.31;;;4.34;100.00
23616;BME280;11985;49.404;7.734;2023-12-14T19:27:47;98039.13;;;4.39;100.00
23616;BME280;11985;49.404;7.734;2023-12-14T19:32:54;98044.63;;;4.36;100.00
23616;BME280;11985;49.404;7.734;2023-12-14T19:37:56;98059.38;;;4.28;100.00
23616;BME280;11985;49.404;7.734;2023-12-14T19:42:57;98070.09;;;4.24;100.00
23616;BME280;11985;49.404;7.734;2023-12-14T19:48:00;98077.38;;;4.21;100.00
23616;BME280;11985;49.404;7.734;2023-12-14T19:53:02;98077.25;;;4.22;100.00
23616;BME280;11985;49.404;7.734;2023-12-14T19:58:03;98084.75;;;3.98;100.00
23616;BME280;11985;49.404;7.734;2023-12-14T20:03:06;98096.31;;;3.95;100.00
23616;BME280;11985;49.404;7.734;2023-12-14T20:08:11;98107.81;;;3.93;100.00
23616;BME280;11985;49.404;7.734;2023-12-14T20:13:12;98122.22;;;3.97;100.00
23616;BME280;11985;49.404;7.734;2023-12-14T20:18:15;98127.84;;;4.02;100.00
23616;BME280;11985;49.404;7.734;2023-12-14T20:23:17;98142.72;;;4.19;100.00
23616;BME280;11985;49.404;7.734;2023-12-14T20:28:19;98138.94;;;4.32;100.00
23616;BME280;11985;49.404;7.734;2023-12-14T20:33:22;98152.19;;;4.20;100.00
23616;BME280;11985;49.404;7.734;2023-12-14T20:38:23;98153.56;;;4.15;100.00
23616;BME280;11985;49.404;7.734;2023-12-14T20:43:25;98165.13;;;4.12;100.00
23616;BME280;11985;49.404;7.734;2023-12-14T20:48:28;98169.38;;;4.13;100.00
23616;BME280;11985;49.404;7.734;2023-12-14T20:53:30;98164.25;;;4.21;100.00
23616;BME280;11985;49.404;7.734;2023-12-14T20:58:32;98179.97;;;4.02;100.00
23616;BME280;11985;49.404;7.734;2023-12-14T21:03:35;98193.16;;;3.91;100.00
23616;BME280;11985;49.404;7.734;2023-12-14T21:08:39;98196.19;;;3.96;100.00
23616;BME280;11985;49.404;7.734;2023-12-14T21:13:41;98202.88;;;3.98;100.00
23616;BME280;11985;49.404;7.734;2023-12-14T21:18:44;98206.34;;;3.89;100.00
23616;BME280;11985;49.404;7.734;2023-12-14T21:23:46;98213.44;;;3.97;100.00
23616;BME280;11985;49.404;7.734;2023-12-14T21:28:48;98222.06;;;4.07;100.00
23616;BME280;11985;49.404;7.734;2023-12-14T21:33:53;98222.25;;;3.96;100.00
23616;BME280;11985;49.404;7.734;2023-12-14T21:38:54;98217.13;;;4.04;100.00
23616;BME280;11985;49.404;7.734;2023-12-14T21:43:56;98230.00;;;4.15;100.00
23616;BME280;11985;49.404;7.734;2023-12-14T21:48:59;98230.97;;;4.14;100.00
23616;BME280;11985;49.404;7.734;2023-12-14T21:54:01;98232.91;;;4.12;100.00
23616;BME280;11985;49.404;7.734;2023-12-14T21:59:02;98230.97;;;4.05;100.00
23616;BME280;11985;49.404;7.734;2023-12-14T22:04:05;98236.50;;;3.92;100.00
23616;BME280;11985;49.404;7.734;2023-12-14T22:09:07;98246.53;;;3.87;100.00
23616;BME280;11985;49.404;7.734;2023-12-14T22:14:08;98256.13;;;3.86;100.00
23616;BME280;11985;49.404;7.734;2023-12-14T22:19:12;98259.16;;;3.82;100.00
23616;BME280;11985;49.404;7.734;2023-12-14T22:24:13;98267.00;;;3.72;100.00
23616;BME280;11985;49.404;7.734;2023-12-14T22:29:15;98266.13;;;3.71;100.00
23616;BME280;11985;49.404;7.734;2023-12-14T22:34:18;98282.06;;;3.68;100.00
23616;BME280;11985;49.404;7.734;2023-12-14T22:39:19;98304.84;;;3.66;100.00
23616;BME280;11985;49.404;7.734;2023-12-14T22:44:21;98311.38;;;3.61;100.00
23616;BME280;11985;49.404;7.734;2023-12-14T22:49:27;98319.63;;;3.66;100.00
23616;BME280;11985;49.404;7.734;2023-12-14T22:54:29;98318.78;;;3.65;100.00
23616;BME280;11985;49.404;7.734;2023-12-14T22:59:31;98316.88;;;3.48;100.00
23616;BME280;11985;49.404;7.734;2023-12-14T23:04:34;98324.53;;;3.40;100.00
23616;BME280;11985;49.404;7.734;2023-12-14T23:09:36;98341.63;;;3.33;100.00
23616;BME280;11985;49.404;7.734;2023-12-14T23:14:38;98342.47;;;3.24;100.00
23616;BME280;11985;49.404;7.734;2023-12-14T23:19:41;98359.56;;;3.16;100.00
23616;BME280;11985;49.404;7.734;2023-12-14T23:24:42;98373.78;;;3.12;100.00
23616;BME280;11985;49.404;7.734;2023-12-14T23:29:44;98378.72;;;3.15;100.00
23616;BME280;11985;49.404;7.734;2023-12-14T23:34:47;98389.97;;;3.16;100.00
23616;BME280;11985;49.404;7.734;2023-12-14T23:39:49;98392.13;;;3.11;100.00
23616;BME280;11985;49.404;7.734;2023-12-14T23:44:51;98393.91;;;3.10;100.00
23616;BME280;11985;49.404;7.734;2023-12-14T23:49:54;98400.34;;;3.06;100.00
23616;BME280;11985;49.404;7.734;2023-12-14T23:54:56;98398.44;;;3.08;100.00
23616;BME280;11985;49.404;7.734;2023-12-14T23:59:57;98414.47;;;3.13;100.00
